Time;durP1;ratioP1;P1;durP2;ratioP2;P2;SDS_P1;SDS_P2;PMS_P1;PMS_P2;Temp;Humidity;BMP_temperature;BMP_pressure;BME280_temperature;BME280_humidity;BME280_pressure;Samples;Min_cycle;Max_cycle;Signal;HPM_P1;HPM_P2
2020/12/07 00:00:55;;;;;;;45.35;29.35;;;;;;;;;;5092085;28;20032;-77
2020/12/07 00:03:20;;;;;;;45.00;28.77;;;;;;;;;;5092032;28;20043;-77
2020/12/07 00:05:45;;;;;;;40.80;26.95;;;;;;;;;;5093464;28;20036;-77
2020/12/07 00:08:11;;;;;;;44.53;28.58;;;;;;;;;;5093702;28;20043;-77
2020/12/07 00:10:36;;;;;;;44.90;28.95;;;;;;;;;;5093374;28;20047;-77
2020/12/07 00:13:02;;;;;;;49.63;30.67;;;;;;;;;;5093503;28;20107;-77
2020/12/07 00:15:27;;;;;;;43.45;28.40;;;;;;;;;;5093232;28;20036;-77
2020/12/07 00:17:53;;;;;;;50.63;31.75;;;;;;;;;;5093216;28;20111;-77
2020/12/07 00:20:18;;;;;;;49.08;30.73;;;;;;;;;;5092953;28;20035;-77
2020/12/07 00:22:43;;;;;;;48.95;29.45;;;;;;;;;;5093322;28;20075;-77
2020/12/07 00:25:09;;;;;;;52.10;32.47;;;;;;;;;;5093181;28;20040;-77
2020/12/07 00:27:35;;;;;;;56.00;32.28;;;;;;;;;;5093691;28;20104;-77
2020/12/07 00:30:03;;;;;;;56.95;34.03;;;;;;;;;;5092726;28;20063;-77
2020/12/07 00:32:28;;;;;;;52.67;32.60;;;;;;;;;;5092966;28;20051;-77
2020/12/07 00:34:55;;;;;;;48.35;31.65;;;;;;;;;;5093128;28;20044;-77
2020/12/07 00:37:22;;;;;;;51.80;31.83;;;;;;;;;;5093357;28;20032;-77
2020/12/07 00:39:47;;;;;;;45.50;28.05;;;;;;;;;;5093166;28;20035;-77
2020/12/07 00:42:13;;;;;;;49.90;31.10;;;;;;;;;;5093295;28;20050;-77
2020/12/07 00:44:40;;;;;;;50.88;32.40;;;;;;;;;;5092153;28;20043;-77
2020/12/07 00:47:07;;;;;;;45.60;28.23;;;;;;;;;;5093787;28;20043;-77
2020/12/07 00:49:34;;;;;;;45.13;29.10;;;;;;;;;;5091947;28;20032;-77
2020/12/07 00:52:00;;;;;;;49.28;30.05;;;;;;;;;;5092011;28;20078;-77
2020/12/07 00:54:26;;;;;;;47.10;29.85;;;;;;;;;;5093637;28;20028;-77
2020/12/07 00:56:55;;;;;;;43.65;26.88;;;;;;;;;;5093460;28;20024;-77
2020/12/07 00:59:23;;;;;;;52.72;31.60;;;;;;;;;;5092070;28;20048;-77
2020/12/07 01:01:51;;;;;;;60.30;36.05;;;;;;;;;;5091991;28;20473;-77
2020/12/07 01:04:17;;;;;;;54.88;33.33;;;;;;;;;;5091871;28;20143;-77
2020/12/07 01:06:45;;;;;;;62.67;35.85;;;;;;;;;;5094143;28;20068;-77
2020/12/07 01:09:16;;;;;;;56.85;34.28;;;;;;;;;;5093442;28;20043;-77
2020/12/07 01:11:45;;;;;;;56.42;31.98;;;;;;;;;;5093708;28;20042;-77
2020/12/07 01:14:12;;;;;;;55.40;32.95;;;;;;;;;;5095139;28;20474;-77
2020/12/07 01:16:38;;;;;;;62.88;36.05;;;;;;;;;;5096170;28;20056;-77
2020/12/07 01:19:08;;;;;;;61.65;36.03;;;;;;;;;;5095023;28;20062;-77
2020/12/07 01:21:35;;;;;;;54.78;32.50;;;;;;;;;;5095721;28;20120;-77
2020/12/07 01:24:02;;;;;;;64.32;35.67;;;;;;;;;;5097582;28;20039;-77
2020/12/07 01:26:30;;;;;;;57.63;33.03;;;;;;;;;;5097690;28;20035;-77
2020/12/07 01:28:56;;;;;;;66.10;35.90;;;;;;;;;;5097771;28;20039;-77
2020/12/07 01:31:22;;;;;;;58.95;34.97;;;;;;;;;;5097212;28;20059;-77
2020/12/07 01:33:47;;;;;;;56.75;34.00;;;;;;;;;;5097104;28;20528;-77
2020/12/07 01:36:15;;;;;;;54.40;31.63;;;;;;;;;;5097038;28;20028;-77
2020/12/07 01:38:41;;;;;;;50.70;31.25;;;;;;;;;;5095944;28;20123;-77
2020/12/07 01:41:07;;;;;;;45.65;28.75;;;;;;;;;;5096027;28;20385;-76
2020/12/07 01:43:32;;;;;;;51.42;30.20;;;;;;;;;;5096541;28;20036;-77
2020/12/07 01:45:59;;;;;;;51.92;29.95;;;;;;;;;;5095299;28;20093;-77
2020/12/07 01:48:27;;;;;;;48.80;29.85;;;;;;;;;;5095182;28;20135;-77
2020/12/07 01:50:56;;;;;;;44.97;27.52;;;;;;;;;;5095114;28;20397;-77
2020/12/07 01:53:23;;;;;;;47.22;29.00;;;;;;;;;;5096122;28;20028;-77
2020/12/07 01:55:51;;;;;;;39.83;26.33;;;;;;;;;;5094788;28;20693;-76
2020/12/07 01:58:16;;;;;;;47.20;28.75;;;;;;;;;;5096001;28;20036;-77
2020/12/07 02:00:43;;;;;;;45.65;29.05;;;;;;;;;;5094752;28;20059;-77
2020/12/07 02:03:11;;;;;;;46.60;29.00;;;;;;;;;;5096233;28;20036;-76
2020/12/07 02:05:41;;;;;;;46.85;29.17;;;;;;;;;;5096190;28;20032;-77
2020/12/07 02:08:19;;;;;;;42.78;27.63;;;;;;;;;;5095129;28;20076;-77
2020/12/07 02:11:02;;;;;;;43.90;26.63;;;;;;;;;;5094374;28;20040;-77
2020/12/07 02:13:30;;;;;;;46.30;28.58;;;;;;;;;;5078054;28;20119;-77
2020/12/07 02:15:57;;;;;;;48.90;29.75;;;;;;;;;;5094636;28;20058;-77
2020/12/07 02:18:27;;;;;;;51.42;29.55;;;;;;;;;;5077766;28;20040;-77
2020/12/07 02:20:55;;;;;;;51.83;31.77;;;;;;;;;;5094385;28;20024;-77
2020/12/07 02:23:59;;;;;;;51.65;31.48;;;;;;;;;;5093085;28;20138;-77
2020/12/07 02:26:27;;;;;;;55.75;33.38;;;;;;;;;;5075528;28;20032;-77
2020/12/07 02:28:56;;;;;;;60.67;34.50;;;;;;;;;;5082991;28;20101;-77
2020/12/07 02:31:27;;;;;;;58.10;32.92;;;;;;;;;;5093844;28;20024;-77
2020/12/07 02:33:54;;;;;;;55.15;33.80;;;;;;;;;;5093528;28;20063;-77
2020/12/07 02:36:19;;;;;;;61.20;35.30;;;;;;;;;;5093263;28;20055;-76
2020/12/07 02:38:52;;;;;;;64.20;33.53;;;;;;;;;;5094964;28;20039;-77
2020/12/07 02:41:18;;;;;;;60.55;34.85;;;;;;;;;;5093191;28;20036;-76
2020/12/07 02:43:45;;;;;;;60.15;33.45;;;;;;;;;;5093498;28;20024;-77
2020/12/07 02:46:12;;;;;;;55.72;33.45;;;;;;;;;;5093471;28;20392;-77
2020/12/07 02:48:37;;;;;;;53.38;33.35;;;;;;;;;;5086685;28;20394;-76
2020/12/07 02:51:09;;;;;;;54.13;32.53;;;;;;;;;;5073141;28;20039;-77
2020/12/07 02:53:35;;;;;;;50.17;31.98;;;;;;;;;;5072986;28;20393;-77
2020/12/07 02:56:00;;;;;;;50.35;31.88;;;;;;;;;;5072979;28;20028;-77
2020/12/07 02:58:29;;;;;;;60.28;33.30;;;;;;;;;;5072823;28;20049;-77
2020/12/07 03:00:56;;;;;;;53.35;31.50;;;;;;;;;;5068702;28;20042;-77
2020/12/07 03:03:23;;;;;;;56.70;33.28;;;;;;;;;;5092755;28;20032;-77
2020/12/07 03:05:48;;;;;;;59.83;34.97;;;;;;;;;;5092950;28;20032;-77
2020/12/07 03:08:18;;;;;;;54.35;32.80;;;;;;;;;;5093149;28;20035;-77
2020/12/07 03:10:44;;;;;;;67.15;36.08;;;;;;;;;;5093023;28;20386;-77
2020/12/07 03:13:10;;;;;;;57.95;33.67;;;;;;;;;;5093220;28;20082;-76
2020/12/07 03:15:38;;;;;;;56.22;32.25;;;;;;;;;;5094826;28;20091;-79
2020/12/07 03:18:05;;;;;;;69.07;37.15;;;;;;;;;;5095127;28;20036;-79
2020/12/07 03:20:49;;;;;;;55.85;33.85;;;;;;;;;;5094996;28;20040;-78
2020/12/07 03:23:14;;;;;;;53.92;31.70;;;;;;;;;;5093229;28;20550;-77
2020/12/07 03:25:40;;;;;;;55.60;32.95;;;;;;;;;;5092962;28;20032;-77
2020/12/07 03:28:06;;;;;;;51.28;31.17;;;;;;;;;;5094840;28;20126;-77
2020/12/07 03:30:32;;;;;;;50.47;30.90;;;;;;;;;;5093317;28;20067;-78
2020/12/07 03:32:57;;;;;;;60.55;33.15;;;;;;;;;;5092747;28;20111;-77
2020/12/07 03:35:25;;;;;;;57.20;33.40;;;;;;;;;;5092979;28;20478;-77
2020/12/07 03:37:51;;;;;;;56.10;31.58;;;;;;;;;;5092062;28;20034;-77
2020/12/07 03:40:17;;;;;;;52.78;30.10;;;;;;;;;;5092642;28;20544;-77
2020/12/07 03:42:47;;;;;;;54.00;32.83;;;;;;;;;;5093159;28;20035;-77
2020/12/07 03:45:14;;;;;;;48.58;28.95;;;;;;;;;;5092755;28;20040;-77
2020/12/07 03:47:40;;;;;;;55.03;31.13;;;;;;;;;;5092165;28;20616;-77
2020/12/07 03:50:06;;;;;;;50.63;29.83;;;;;;;;;;5092978;28;20386;-77
2020/12/07 03:52:36;;;;;;;44.80;28.55;;;;;;;;;;5092823;28;20037;-77
2020/12/07 03:55:07;;;;;;;51.67;31.20;;;;;;;;;;5094990;28;20070;-78
2020/12/07 03:57:33;;;;;;;58.08;33.58;;;;;;;;;;5093466;28;20062;-78
2020/12/07 03:59:59;;;;;;;55.70;33.17;;;;;;;;;;5094698;28;20555;-79
2020/12/07 04:02:27;;;;;;;60.13;33.45;;;;;;;;;;5093882;28;20032;-79
2020/12/07 04:05:02;;;;;;;56.85;33.33;;;;;;;;;;5095417;28;20036;-77
2020/12/07 04:07:29;;;;;;;57.08;32.53;;;;;;;;;;5076777;28;20032;-78
2020/12/07 04:09:55;;;;;;;46.00;29.17;;;;;;;;;;5093606;28;20032;-78
2020/12/07 04:12:20;;;;;;;52.70;29.35;;;;;;;;;;5094642;28;20039;-78
2020/12/07 04:14:46;;;;;;;52.53;30.42;;;;;;;;;;5094584;28;20028;-78
2020/12/07 04:17:11;;;;;;;46.72;28.25;;;;;;;;;;5094323;28;20043;-78
2020/12/07 04:19:36;;;;;;;49.13;29.45;;;;;;;;;;5094929;28;20036;-78
2020/12/07 04:22:02;;;;;;;47.88;28.48;;;;;;;;;;5076696;28;20402;-78
2020/12/07 04:24:27;;;;;;;45.03;28.85;;;;;;;;;;5093106;28;20413;-78
2020/12/07 04:26:52;;;;;;;47.33;29.15;;;;;;;;;;5094801;28;20032;-78
2020/12/07 04:29:18;;;;;;;48.10;28.17;;;;;;;;;;5094192;28;20036;-78
2020/12/07 04:31:43;;;;;;;44.25;27.98;;;;;;;;;;5094257;28;20101;-78
2020/12/07 04:34:09;;;;;;;47.10;27.77;;;;;;;;;;5094440;28;20085;-78
2020/12/07 04:36:34;;;;;;;46.78;27.15;;;;;;;;;;5094528;28;20036;-78
2020/12/07 04:38:59;;;;;;;49.75;28.73;;;;;;;;;;5094682;28;20039;-78
2020/12/07 04:41:25;;;;;;;49.53;29.35;;;;;;;;;;5094844;28;20042;-78
2020/12/07 04:43:51;;;;;;;49.85;30.27;;;;;;;;;;5094410;28;20058;-78
2020/12/07 04:46:16;;;;;;;47.35;29.77;;;;;;;;;;5094243;28;20416;-78
2020/12/07 04:48:45;;;;;;;46.92;28.10;;;;;;;;;;5096443;28;20039;-78
2020/12/07 04:51:12;;;;;;;42.30;27.08;;;;;;;;;;5098187;28;20062;-78
2020/12/07 04:53:40;;;;;;;51.88;29.85;;;;;;;;;;5097063;28;20032;-78
2020/12/07 04:56:05;;;;;;;56.47;31.63;;;;;;;;;;5097960;28;20032;-78
2020/12/07 04:58:34;;;;;;;53.63;30.70;;;;;;;;;;5097732;28;20138;-78
2020/12/07 05:00:59;;;;;;;49.42;29.30;;;;;;;;;;5096383;28;20068;-78
2020/12/07 05:03:24;;;;;;;52.55;31.10;;;;;;;;;;5096714;28;20058;-78
2020/12/07 05:05:53;;;;;;;47.05;28.80;;;;;;;;;;5097965;28;20040;-78
2020/12/07 05:08:18;;;;;;;49.45;29.05;;;;;;;;;;5097621;28;20067;-78
2020/12/07 05:10:45;;;;;;;50.90;31.00;;;;;;;;;;5100051;28;20039;-79
2020/12/07 05:15:43;;;;;;;45.15;27.75;;;;;;;;;;5097229;28;20028;-79
2020/12/07 05:18:08;;;;;;;44.42;28.55;;;;;;;;;;5097979;28;20044;-79
2020/12/07 05:20:33;;;;;;;45.78;29.00;;;;;;;;;;5100219;28;20089;-79
2020/12/07 05:23:00;;;;;;;49.80;30.48;;;;;;;;;;5101212;28;20040;-79
2020/12/07 05:25:26;;;;;;;47.65;29.52;;;;;;;;;;5101874;28;20035;-79
2020/12/07 05:27:52;;;;;;;47.08;29.70;;;;;;;;;;5099957;28;20119;-79
2020/12/07 05:32:43;;;;;;;50.15;30.33;;;;;;;;;;5099647;28;20032;-79
2020/12/07 05:35:09;;;;;;;51.45;30.83;;;;;;;;;;5096372;28;20032;-78
2020/12/07 05:37:35;;;;;;;45.28;27.25;;;;;;;;;;5097470;28;20058;-78
2020/12/07 05:40:04;;;;;;;45.55;27.38;;;;;;;;;;5097381;28;20050;-78
2020/12/07 05:42:30;;;;;;;39.83;24.70;;;;;;;;;;5097124;28;20119;-78
2020/12/07 05:44:57;;;;;;;37.08;22.88;;;;;;;;;;5096838;28;20032;-78
2020/12/07 05:47:24;;;;;;;47.15;27.98;;;;;;;;;;5097317;28;20031;-78
2020/12/07 05:49:51;;;;;;;48.90;29.00;;;;;;;;;;5097867;28;20040;-78
2020/12/07 05:52:23;;;;;;;68.90;40.80;;;;;;;;;;5096648;28;20028;-78
2020/12/07 05:54:50;;;;;;;57.70;35.17;;;;;;;;;;5098078;28;20495;-79
2020/12/07 05:57:16;;;;;;;50.50;31.60;;;;;;;;;;5098301;28;20070;-78
2020/12/07 05:59:45;;;;;;;50.22;32.00;;;;;;;;;;5098676;28;20071;-78
2020/12/07 06:02:15;;;;;;;45.25;29.02;;;;;;;;;;5099375;28;20028;-79
2020/12/07 06:04:40;;;;;;;43.15;27.42;;;;;;;;;;5098863;28;20038;-79
2020/12/07 06:07:09;;;;;;;41.97;25.27;;;;;;;;;;5098267;28;20036;-78
2020/12/07 06:09:38;;;;;;;35.67;23.02;;;;;;;;;;5099074;28;20039;-79
2020/12/07 06:12:15;;;;;;;32.83;21.17;;;;;;;;;;5099081;28;20051;-79
2020/12/07 06:14:42;;;;;;;34.40;21.08;;;;;;;;;;5098566;28;20036;-78
2020/12/07 06:17:10;;;;;;;30.30;18.65;;;;;;;;;;5098320;28;20126;-78
2020/12/07 06:19:38;;;;;;;28.30;18.95;;;;;;;;;;5098406;28;20089;-78
2020/12/07 06:22:06;;;;;;;30.58;19.88;;;;;;;;;;5098596;28;20032;-78
2020/12/07 06:24:40;;;;;;;28.50;17.88;;;;;;;;;;5095409;28;20046;-78
2020/12/07 06:27:11;;;;;;;25.73;16.85;;;;;;;;;;5098180;28;20078;-78
2020/12/07 06:29:37;;;;;;;25.95;17.17;;;;;;;;;;5098274;28;20164;-78
2020/12/07 06:32:03;;;;;;;25.48;16.13;;;;;;;;;;5097681;28;20089;-78
2020/12/07 06:34:41;;;;;;;23.92;16.55;;;;;;;;;;5096827;28;20034;-79
2020/12/07 06:37:11;;;;;;;24.70;16.10;;;;;;;;;;5097195;28;20035;-78
2020/12/07 06:39:47;;;;;;;22.83;15.20;;;;;;;;;;5097552;28;20062;-78
2020/12/07 06:42:13;;;;;;;22.43;14.97;;;;;;;;;;5097668;28;20456;-78
2020/12/07 06:44:49;;;;;;;20.90;14.07;;;;;;;;;;5095631;28;20183;-78
2020/12/07 06:47:23;;;;;;;25.23;16.70;;;;;;;;;;5097203;28;20040;-78
2020/12/07 06:50:02;;;;;;;29.15;18.92;;;;;;;;;;5094906;28;20039;-78
2020/12/07 06:52:32;;;;;;;25.50;16.65;;;;;;;;;;5103998;28;20504;-78
2020/12/07 06:55:08;;;;;;;25.13;16.67;;;;;;;;;;5103068;28;20051;-79
2020/12/07 06:57:33;;;;;;;;;;;;;;;;;;5106242;28;20127;-80
2020/12/07 07:00:02;;;;;;;23.93;15.37;;;;;;;;;;5104521;28;19920;-78
2020/12/07 07:02:28;;;;;;;22.25;14.13;;;;;;;;;;5101423;28;20034;-78
2020/12/07 07:04:55;;;;;;;19.77;13.73;;;;;;;;;;5101415;28;20554;-80
2020/12/07 07:07:25;;;;;;;30.17;18.90;;;;;;;;;;5102293;28;20085;-77
2020/12/07 07:09:52;;;;;;;26.90;16.88;;;;;;;;;;5099227;28;20070;-79
2020/12/07 07:12:19;;;;;;;24.42;16.60;;;;;;;;;;5097536;28;20075;-79
2020/12/07 07:14:47;;;;;;;20.33;14.07;;;;;;;;;;5101095;28;20043;-79
2020/12/07 07:17:12;;;;;;;19.02;12.98;;;;;;;;;;5095587;28;20020;-77
2020/12/07 07:19:38;;;;;;;20.80;11.75;;;;;;;;;;5095137;28;20562;-77
2020/12/07 07:22:03;;;;;;;15.73;10.55;;;;;;;;;;5092978;28;20044;-77
2020/12/07 07:24:38;;;;;;;14.75;9.32;;;;;;;;;;5092863;28;20036;-76
2020/12/07 07:27:58;;;;;;;14.63;9.80;;;;;;;;;;5075865;28;20028;-77
2020/12/07 07:29:52;;;;;;;12.77;8.57;;;;;;;;;;5094131;28;20040;-77
2020/12/07 07:32:19;;;;;;;13.65;8.80;;;;;;;;;;5093388;28;20043;-77
2020/12/07 07:34:46;;;;;;;14.23;9.15;;;;;;;;;;5094135;28;20024;-77
2020/12/07 07:37:13;;;;;;;13.98;9.40;;;;;;;;;;5093411;28;20048;-76
2020/12/07 07:39:38;;;;;;;12.18;7.95;;;;;;;;;;5082431;28;20059;-76
2020/12/07 07:42:12;;;;;;;12.27;8.55;;;;;;;;;;5082237;28;20032;-76
2020/12/07 07:44:41;;;;;;;;;;;;;;;;;;5079604;28;20472;-77
2020/12/07 07:47:10;;;;;;;13.55;8.98;;;;;;;;;;5080107;28;19913;-76
2020/12/07 07:49:57;;;;;;;13.57;9.30;;;;;;;;;;5096193;28;20036;-75
2020/12/07 08:16:20;;;;;;;9.48;7.32;;;;;;;;;;5095297;28;20478;-80
2020/12/07 08:18:46;;;;;;;8.98;6.82;;;;;;;;;;5087063;28;20440;-80
2020/12/07 08:21:13;;;;;;;9.32;6.63;;;;;;;;;;5095412;28;20423;-80
2020/12/07 08:23:39;;;;;;;8.18;6.18;;;;;;;;;;5098419;28;20115;-80
2020/12/07 08:26:05;;;;;;;8.75;6.40;;;;;;;;;;5099429;28;20123;-78
2020/12/07 08:28:37;;;;;;;8.52;5.97;;;;;;;;;;5092056;28;20468;-81
2020/12/07 08:31:11;;;;;;;8.77;5.82;;;;;;;;;;5089154;28;20040;-80
2020/12/07 08:34:00;;;;;;;8.20;5.20;;;;;;;;;;5077624;28;20036;-80
2020/12/07 08:36:30;;;;;;;6.78;5.25;;;;;;;;;;5078020;28;20055;-76
2020/12/07 08:38:56;;;;;;;6.30;4.75;;;;;;;;;;5077231;28;20127;-77
2020/12/07 08:41:26;;;;;;;8.15;4.40;;;;;;;;;;5077279;28;20452;-77
2020/12/07 08:44:01;;;;;;;5.03;3.83;;;;;;;;;;5078872;28;20036;-77
2020/12/07 08:46:28;;;;;;;5.50;3.90;;;;;;;;;;5092048;28;20036;-77
2020/12/07 08:48:54;;;;;;;6.93;3.92;;;;;;;;;;5098765;28;20043;-77
2020/12/07 08:51:21;;;;;;;4.35;3.45;;;;;;;;;;5097067;28;20051;-77
2020/12/07 08:53:47;;;;;;;4.28;3.60;;;;;;;;;;5097051;28;20032;-77
2020/12/07 08:56:12;;;;;;;4.45;3.13;;;;;;;;;;5097119;28;20035;-77
2020/12/07 08:58:38;;;;;;;4.45;3.63;;;;;;;;;;5097247;28;20047;-77
2020/12/07 09:01:06;;;;;;;4.57;3.05;;;;;;;;;;5096237;28;20051;-77
2020/12/07 09:03:34;;;;;;;3.13;2.53;;;;;;;;;;5096774;28;20119;-77
2020/12/07 09:06:03;;;;;;;5.05;2.85;;;;;;;;;;5095444;28;20052;-77
2020/12/07 09:08:29;;;;;;;3.80;3.05;;;;;;;;;;5096562;28;20123;-78
2020/12/07 09:10:55;;;;;;;3.85;3.25;;;;;;;;;;5096925;28;20538;-77
2020/12/07 09:13:21;;;;;;;4.32;3.08;;;;;;;;;;5096444;28;20111;-77
2020/12/07 09:15:47;;;;;;;3.85;2.70;;;;;;;;;;5088630;28;20474;-77
2020/12/07 09:18:12;;;;;;;4.68;2.95;;;;;;;;;;5076122;28;20040;-78
2020/12/07 09:20:38;;;;;;;3.80;3.15;;;;;;;;;;5076370;28;20044;-78
2020/12/07 09:23:03;;;;;;;3.72;2.40;;;;;;;;;;5076103;28;20037;-77
2020/12/07 09:25:29;;;;;;;3.20;2.47;;;;;;;;;;5075841;28;20036;-76
2020/12/07 09:27:54;;;;;;;4.00;2.40;;;;;;;;;;5076589;28;20060;-76
2020/12/07 09:30:19;;;;;;;2.90;2.30;;;;;;;;;;5076113;28;20071;-76
2020/12/07 09:32:45;;;;;;;3.38;2.30;;;;;;;;;;5075663;28;20076;-76
2020/12/07 09:35:11;;;;;;;3.55;2.30;;;;;;;;;;5073664;28;20028;-77
2020/12/07 09:37:37;;;;;;;2.47;2.10;;;;;;;;;;5075991;28;20074;-76
2020/12/07 09:40:04;;;;;;;8.00;5.35;;;;;;;;;;5074730;28;20041;-77
2020/12/07 09:42:30;;;;;;;4.30;2.95;;;;;;;;;;5075855;28;20474;-76
2020/12/07 09:44:56;;;;;;;4.38;2.97;;;;;;;;;;5076835;28;20112;-76
2020/12/07 09:47:21;;;;;;;3.42;2.15;;;;;;;;;;5095776;28;20028;-76
2020/12/07 09:49:46;;;;;;;2.28;2.05;;;;;;;;;;5096144;28;20444;-76
2020/12/07 09:52:12;;;;;;;2.75;2.20;;;;;;;;;;5095887;28;20123;-76
2020/12/07 09:54:38;;;;;;;2.50;1.92;;;;;;;;;;5094807;28;20016;-75
2020/12/07 09:57:06;;;;;;;2.40;1.63;;;;;;;;;;5096006;28;20062;-76
2020/12/07 09:59:33;;;;;;;7.57;2.20;;;;;;;;;;5094324;28;20055;-75
2020/12/07 10:01:59;;;;;;;2.65;2.13;;;;;;;;;;5095377;28;20042;-75
2020/12/07 10:04:24;;;;;;;2.75;2.15;;;;;;;;;;5095395;28;20438;-75
2020/12/07 10:06:50;;;;;;;2.20;1.98;;;;;;;;;;5095671;28;20044;-76
2020/12/07 10:09:15;;;;;;;2.55;1.90;;;;;;;;;;5095488;28;20043;-76
2020/12/07 10:11:40;;;;;;;3.53;2.72;;;;;;;;;;5095774;28;20065;-76
2020/12/07 10:14:06;;;;;;;5.35;3.58;;;;;;;;;;5095346;28;20081;-76
2020/12/07 10:16:31;;;;;;;4.55;2.92;;;;;;;;;;5109636;28;20042;-76
2020/12/07 10:18:56;;;;;;;5.20;3.15;;;;;;;;;;5115992;28;20488;-76
2020/12/07 10:21:25;;;;;;;3.22;2.58;;;;;;;;;;5115648;28;20489;-76
2020/12/07 10:23:51;;;;;;;3.22;2.58;;;;;;;;;;5115790;28;20073;-75
2020/12/07 10:26:21;;;;;;;3.92;2.53;;;;;;;;;;5098846;27;20042;-76
2020/12/07 10:28:46;;;;;;;4.28;3.03;;;;;;;;;;5095196;28;20036;-75
2020/12/07 10:31:12;;;;;;;2.72;2.25;;;;;;;;;;5094847;28;20032;-75
2020/12/07 10:33:37;;;;;;;4.00;2.65;;;;;;;;;;5095339;28;20047;-75
2020/12/07 10:36:02;;;;;;;4.72;3.55;;;;;;;;;;5095360;28;20036;-75
2020/12/07 10:38:28;;;;;;;2.45;2.20;;;;;;;;;;5095179;28;20431;-75
2020/12/07 10:40:53;;;;;;;2.45;1.98;;;;;;;;;;5095086;28;20032;-75
2020/12/07 10:43:18;;;;;;;2.60;2.03;;;;;;;;;;5094813;28;20527;-75
2020/12/07 10:45:44;;;;;;;2.95;2.28;;;;;;;;;;5094281;28;20028;-75
2020/12/07 10:48:09;;;;;;;2.85;2.20;;;;;;;;;;5094925;28;20369;-75
2020/12/07 10:50:35;;;;;;;3.33;2.30;;;;;;;;;;5094942;28;20067;-75
2020/12/07 10:53:00;;;;;;;3.20;2.42;;;;;;;;;;5078149;28;20033;-75
2020/12/07 10:55:25;;;;;;;2.40;2.17;;;;;;;;;;5074414;28;20161;-76
2020/12/07 10:57:51;;;;;;;2.55;1.95;;;;;;;;;;5074375;28;20036;-76
2020/12/07 11:00:16;;;;;;;3.63;2.65;;;;;;;;;;5074272;28;20044;-75
2020/12/07 11:02:42;;;;;;;2.40;2.17;;;;;;;;;;5074175;28;20068;-77
2020/12/07 11:05:07;;;;;;;3.38;2.30;;;;;;;;;;5074387;28;20044;-77
2020/12/07 11:07:33;;;;;;;2.85;2.33;;;;;;;;;;5074364;28;20067;-76
2020/12/07 11:09:59;;;;;;;3.20;2.45;;;;;;;;;;5074276;28;20048;-76
2020/12/07 11:12:25;;;;;;;3.78;2.30;;;;;;;;;;5074045;28;20044;-77
2020/12/07 11:14:50;;;;;;;4.20;2.40;;;;;;;;;;5074247;28;20040;-76
2020/12/07 11:17:16;;;;;;;2.08;1.88;;;;;;;;;;5074050;28;20566;-76
2020/12/07 11:19:43;;;;;;;2.53;2.17;;;;;;;;;;5074032;28;20044;-77
2020/12/07 11:22:09;;;;;;;2.15;1.90;;;;;;;;;;5082098;28;20398;-77
2020/12/07 11:24:35;;;;;;;2.10;1.90;;;;;;;;;;5094263;28;20378;-77
2020/12/07 11:27:01;;;;;;;3.17;1.95;;;;;;;;;;5094055;28;20058;-78
2020/12/07 11:29:26;;;;;;;2.55;2.00;;;;;;;;;;5092922;28;20036;-77
2020/12/07 11:31:51;;;;;;;2.50;2.13;;;;;;;;;;5094002;28;20081;-77
2020/12/07 11:34:20;;;;;;;2.10;1.90;;;;;;;;;;5094178;28;20036;-77
2020/12/07 11:36:49;;;;;;;2.38;2.00;;;;;;;;;;5093739;28;20039;-77
2020/12/07 11:44:15;;;;;;;3.17;2.35;;;;;;;;;;5093893;28;20040;-77
2020/12/07 11:46:57;;;;;;;4.13;3.08;;;;;;;;;;5093829;28;20074;-77
2020/12/07 11:49:22;;;;;;;3.30;2.33;;;;;;;;;;5094574;28;20045;-77
2020/12/07 11:51:48;;;;;;;2.65;2.28;;;;;;;;;;5093502;28;20044;-77
2020/12/07 11:54:13;;;;;;;2.13;1.90;;;;;;;;;;5093627;28;20040;-76
2020/12/07 11:56:39;;;;;;;3.45;2.08;;;;;;;;;;5093919;28;20036;-77
2020/12/07 11:59:06;;;;;;;2.15;1.95;;;;;;;;;;5092748;28;20093;-77
2020/12/07 12:01:38;;;;;;;2.45;1.95;;;;;;;;;;5093338;28;20056;-77
2020/12/07 12:04:04;;;;;;;2.35;2.05;;;;;;;;;;5093739;28;20044;-76
2020/12/07 12:06:35;;;;;;;3.05;2.30;;;;;;;;;;5096672;28;20084;-78
2020/12/07 12:09:03;;;;;;;3.15;2.65;;;;;;;;;;5096347;28;20076;-77
2020/12/07 12:11:31;;;;;;;2.47;1.90;;;;;;;;;;5095245;28;20377;-76
2020/12/07 12:13:58;;;;;;;2.42;2.00;;;;;;;;;;5094456;28;20036;-77
2020/12/07 12:16:26;;;;;;;2.33;2.10;;;;;;;;;;5094154;28;20528;-79
2020/12/07 12:18:53;;;;;;;2.60;2.38;;;;;;;;;;5093918;28;20039;-76
2020/12/07 12:21:19;;;;;;;2.38;2.17;;;;;;;;;;5094330;28;20432;-75
2020/12/07 12:23:45;;;;;;;2.85;2.47;;;;;;;;;;5093732;28;20071;-76
2020/12/07 12:26:13;;;;;;;3.28;2.20;;;;;;;;;;5094898;28;20032;-77
2020/12/07 12:28:38;;;;;;;2.63;2.38;;;;;;;;;;5096955;28;20610;-80
2020/12/07 12:31:04;;;;;;;2.42;1.92;;;;;;;;;;5099953;28;20044;-79
2020/12/07 12:33:29;;;;;;;2.70;2.42;;;;;;;;;;5101867;28;20040;-80
2020/12/07 12:35:54;;;;;;;3.45;2.67;;;;;;;;;;5104075;28;20040;-80
2020/12/07 12:38:20;;;;;;;2.63;2.20;;;;;;;;;;5102575;28;20032;-78
2020/12/07 12:40:45;;;;;;;4.03;2.55;;;;;;;;;;5096115;28;20380;-77
2020/12/07 12:43:10;;;;;;;4.47;2.35;;;;;;;;;;5096860;28;20040;-78
2020/12/07 12:45:36;;;;;;;7.75;2.67;;;;;;;;;;5085750;28;20032;-77
2020/12/07 12:48:01;;;;;;;2.40;2.17;;;;;;;;;;5073189;28;20037;-78
2020/12/07 12:50:28;;;;;;;7.07;3.58;;;;;;;;;;5075121;28;20037;-76
2020/12/07 12:52:54;;;;;;;3.35;2.28;;;;;;;;;;5087322;28;20389;-77
2020/12/07 12:55:19;;;;;;;3.15;2.15;;;;;;;;;;5093289;28;20118;-77
2020/12/07 12:57:45;;;;;;;2.72;2.30;;;;;;;;;;5093575;28;20032;-77
2020/12/07 13:00:11;;;;;;;3.08;2.30;;;;;;;;;;5091861;28;20121;-78
2020/12/07 13:02:36;;;;;;;4.65;3.15;;;;;;;;;;5093214;28;20071;-77
2020/12/07 13:05:02;;;;;;;2.97;2.33;;;;;;;;;;5093268;28;20028;-78
2020/12/07 13:07:27;;;;;;;3.70;2.58;;;;;;;;;;5093273;28;20054;-77
2020/12/07 13:09:52;;;;;;;2.42;2.22;;;;;;;;;;5096080;28;20077;-77
2020/12/07 13:12:17;;;;;;;9.77;5.68;;;;;;;;;;5095961;28;20036;-77
2020/12/07 13:14:43;;;;;;;6.25;4.35;;;;;;;;;;5096889;28;20028;-77
2020/12/07 13:17:17;;;;;;;4.47;3.10;;;;;;;;;;5096948;28;20043;-78
2020/12/07 13:19:43;;;;;;;4.40;3.42;;;;;;;;;;5096087;28;20036;-77
2020/12/07 13:22:16;;;;;;;5.38;3.80;;;;;;;;;;5096751;28;20039;-77
2020/12/07 13:24:54;;;;;;;5.45;3.30;;;;;;;;;;5097144;28;20024;-77
2020/12/07 13:30:05;;;;;;;5.65;3.83;;;;;;;;;;5095886;28;20052;-77
2020/12/07 13:32:30;;;;;;;5.15;3.85;;;;;;;;;;5097381;28;20127;-77
2020/12/07 13:34:55;;;;;;;4.80;3.38;;;;;;;;;;5097008;28;20114;-77
2020/12/07 13:37:21;;;;;;;3.60;2.85;;;;;;;;;;5097156;28;20031;-77
2020/12/07 13:39:47;;;;;;;2.70;2.13;;;;;;;;;;5097557;28;20040;-77
2020/12/07 13:42:12;;;;;;;6.75;2.33;;;;;;;;;;5097250;28;20032;-77
2020/12/07 13:44:37;;;;;;;4.60;2.25;;;;;;;;;;5096908;28;20024;-77
2020/12/07 13:47:04;;;;;;;2.72;2.15;;;;;;;;;;5097204;28;20051;-78
2020/12/07 13:49:30;;;;;;;2.92;2.38;;;;;;;;;;5096766;28;20040;-77
2020/12/07 13:51:55;;;;;;;5.60;2.05;;;;;;;;;;5096701;28;20038;-77
2020/12/07 13:54:21;;;;;;;3.35;2.13;;;;;;;;;;5095466;28;20131;-77
2020/12/07 13:56:46;;;;;;;2.22;1.80;;;;;;;;;;5096633;28;20067;-77
2020/12/07 13:59:11;;;;;;;2.05;1.80;;;;;;;;;;5096621;28;20044;-77
2020/12/07 14:01:38;;;;;;;2.08;1.88;;;;;;;;;;5096612;28;20044;-77
2020/12/07 14:04:14;;;;;;;3.22;2.05;;;;;;;;;;5095942;28;20093;-77
2020/12/07 14:06:39;;;;;;;4.00;2.65;;;;;;;;;;5097338;28;20059;-77
2020/12/07 14:09:07;;;;;;;5.05;2.50;;;;;;;;;;5096951;28;20409;-77
2020/12/07 14:11:33;;;;;;;5.03;2.92;;;;;;;;;;5096953;28;20031;-77
2020/12/07 14:13:58;;;;;;;11.90;4.47;;;;;;;;;;5097337;28;20126;-77
2020/12/07 14:16:23;;;;;;;3.45;2.50;;;;;;;;;;5097304;28;20036;-77
2020/12/07 14:19:11;;;;;;;8.05;3.25;;;;;;;;;;5097447;28;20091;-77
2020/12/07 14:40:08;;;;;;;5.72;2.72;;;;;;;;;;5095328;28;20514;-77
2020/12/07 14:42:34;;;;;;;4.68;2.90;;;;;;;;;;5095595;28;20401;-77
2020/12/07 14:45:01;;;;;;;3.47;2.30;;;;;;;;;;5096717;28;20058;-78
2020/12/07 14:47:27;;;;;;;6.70;3.33;;;;;;;;;;5096940;28;20047;-77
2020/12/07 14:49:59;;;;;;;3.05;2.63;;;;;;;;;;5078983;28;20039;-77
2020/12/07 14:52:26;;;;;;;13.60;5.18;;;;;;;;;;5096748;28;20462;-77
2020/12/07 14:54:59;;;;;;;11.98;5.18;;;;;;;;;;5096174;28;20066;-78
2020/12/07 14:57:35;;;;;;;13.05;4.50;;;;;;;;;;5095669;28;20065;-77
2020/12/07 15:05:30;;;;;;;4.35;3.00;;;;;;;;;;5095995;28;20024;-77
2020/12/07 15:08:20;;;;;;;2.70;2.30;;;;;;;;;;5094964;28;20173;-77
2020/12/07 15:11:23;;;;;;;2.40;2.20;;;;;;;;;;5096151;28;20032;-77
2020/12/07 15:13:52;;;;;;;3.45;2.40;;;;;;;;;;5097029;28;20028;-77
2020/12/07 15:16:23;;;;;;;3.30;2.50;;;;;;;;;;5097135;28;20078;-78
2020/12/07 15:18:49;;;;;;;6.70;3.65;;;;;;;;;;5095217;28;20153;-77
2020/12/07 15:21:15;;;;;;;4.78;3.67;;;;;;;;;;5094267;28;20580;-77
2020/12/07 15:23:46;;;;;;;4.05;2.40;;;;;;;;;;5093960;28;20111;-79
2020/12/07 15:26:14;;;;;;;2.40;2.20;;;;;;;;;;5095146;28;20067;-77
2020/12/07 15:28:40;;;;;;;3.17;2.40;;;;;;;;;;5094002;28;20075;-77
2020/12/07 15:31:08;;;;;;;4.13;2.67;;;;;;;;;;5092780;28;20035;-76
2020/12/07 15:33:35;;;;;;;4.00;2.78;;;;;;;;;;5093350;28;20366;-76